Royal Lakes, Illinois
Current Conditions -  °F | °C
As of 6:50 PM on Tuesday 27 Jan 2015 (Local Time) from KALN Reporting Station
Scattered Clouds Scattered Clouds  
Wind Chill: 27°   Ceiling: Unl
Heat Index: 32°   Visibility: 7mi
Dew Point: 27°   Wind: 5mph
Humidity: 80%   Direction: 60°ENE
Pressure: 30.24"   Gusts: NA
Location:  39.138°N, 90.0562°W
Report Text: KALN 280050Z 06004KT 7SM SCT200 00/M03 A3024
Loading
Personal Weather Stations






























Interactive Weather Map New forecast layout! Learn more

10-Day Weather Forecast

Advertisements
Track Severe Weather on mobile